createdAt,value
2022-11-09T00:01:23.788Z,86.26
2022-11-09T00:03:56.290Z,86.32
2022-11-09T00:06:28.188Z,86.31
2022-11-09T00:09:05.741Z,86.28
2022-11-09T00:11:38.833Z,86.14
2022-11-09T00:14:10.676Z,85.64
2022-11-09T00:16:42.182Z,85.68
2022-11-09T00:19:14.480Z,85.35
2022-11-09T00:21:46.006Z,85.06
2022-11-09T00:24:17.905Z,85.29
2022-11-09T00:26:49.471Z,85.06
2022-11-09T00:29:21.439Z,84.80
2022-11-09T00:31:52.940Z,85.27
2022-11-09T00:34:24.967Z,84.89
2022-11-09T00:36:56.468Z,84.56
2022-11-09T00:39:28.000Z,84.30
2022-11-09T00:41:59.542Z,84.34
2022-11-09T00:44:31.376Z,84.16
2022-11-09T00:47:02.870Z,83.96
2022-11-09T00:49:34.828Z,84.01
2022-11-09T00:52:06.327Z,83.89
2022-11-09T00:54:38.285Z,84.04
2022-11-09T00:57:09.795Z,83.96
2022-11-09T00:59:41.620Z,84.22
2022-11-09T01:02:13.109Z,84.36
2022-11-09T01:04:44.912Z,83.95
2022-11-09T01:07:16.504Z,84.18
2022-11-09T01:09:48.398Z,84.31
2022-11-09T01:12:19.908Z,84.21
2022-11-09T01:14:51.726Z,84.37
2022-11-09T01:17:23.292Z,84.39
2022-11-09T01:19:55.108Z,85.01
2022-11-09T01:22:26.613Z,84.97
2022-11-09T01:24:58.439Z,85.05
2022-11-09T01:27:29.938Z,85.62
2022-11-09T01:30:01.762Z,85.53
2022-11-09T01:32:33.284Z,86.05
2022-11-09T01:35:04.802Z,86.32
2022-11-09T01:37:36.340Z,86.73
2022-11-09T01:40:08.210Z,87.07
2022-11-09T01:42:39.721Z,87.52
2022-11-09T01:45:12.265Z,87.66
2022-11-09T01:47:43.744Z,88.07
2022-11-09T01:50:15.767Z,88.51
2022-11-09T01:52:47.262Z,88.88
2022-11-09T01:55:19.118Z,89.53
2022-11-09T01:57:50.666Z,89.49
2022-11-09T02:00:22.313Z,89.27
2022-11-09T02:02:53.846Z,89.72
2022-11-09T02:05:25.709Z,89.74
2022-11-09T02:07:57.264Z,90.40
2022-11-09T02:10:29.188Z,90.89
2022-11-09T02:13:01.083Z,90.87
2022-11-09T02:15:32.621Z,91.73
2022-11-09T02:18:04.461Z,91.85
2022-11-09T02:20:35.957Z,92.17
2022-11-09T02:23:07.485Z,92.34
2022-11-09T02:25:38.966Z,92.51
2022-11-09T02:28:10.741Z,92.83
2022-11-09T02:30:42.266Z,92.34
2022-11-09T02:33:14.051Z,92.73
2022-11-09T02:35:45.573Z,92.99
2022-11-09T02:38:17.470Z,92.70
2022-11-09T02:40:48.984Z,92.73
2022-11-09T02:43:21.050Z,92.83
2022-11-09T02:45:52.749Z,93.23
2022-11-09T02:48:24.585Z,93.45
2022-11-09T02:50:56.078Z,93.47
2022-11-09T02:53:27.896Z,93.29
2022-11-09T02:55:59.394Z,93.09
2022-11-09T02:58:31.252Z,93.53
2022-11-09T03:01:03.157Z,93.07
2022-11-09T03:03:35.136Z,93.13
2022-11-09T03:06:06.638Z,92.80
2022-11-09T03:08:38.555Z,93.01
2022-11-09T03:11:10.054Z,92.47
2022-11-09T03:13:42.069Z,92.39
2022-11-09T03:16:14.141Z,92.00
2022-11-09T03:18:45.941Z,91.48
2022-11-09T03:21:17.480Z,90.69
2022-11-09T03:23:49.296Z,91.30
2022-11-09T03:26:20.818Z,90.40
2022-11-09T03:28:52.618Z,90.82
2022-11-09T03:31:24.128Z,90.10
2022-11-09T03:33:56.130Z,90.20
2022-11-09T03:36:27.647Z,89.82
2022-11-09T03:38:59.486Z,90.19
2022-11-09T03:41:31.016Z,89.19
2022-11-09T03:44:02.870Z,89.05
2022-11-09T03:46:34.351Z,88.99
2022-11-09T03:49:05.875Z,88.83
2022-11-09T03:51:37.435Z,88.73
2022-11-09T03:54:09.198Z,89.48
2022-11-09T03:56:41.135Z,88.79
2022-11-09T03:59:12.982Z,89.04
2022-11-09T04:01:44.530Z,90.09
2022-11-09T04:04:16.402Z,91.30
2022-11-09T04:06:47.995Z,90.48
2022-11-09T04:09:19.875Z,90.67
2022-11-09T04:11:51.413Z,89.77
2022-11-09T04:14:23.473Z,89.96
2022-11-09T04:16:54.959Z,89.87
2022-11-09T04:19:27.013Z,90.07
2022-11-09T04:21:58.499Z,90.11
2022-11-09T04:24:30.031Z,90.43
2022-11-09T04:27:01.583Z,90.97
2022-11-09T04:29:33.509Z,90.88
2022-11-09T04:32:05.017Z,91.61
2022-11-09T04:34:36.884Z,93.26
2022-11-09T04:37:08.378Z,94.66
2022-11-09T04:39:40.316Z,97.89
2022-11-09T04:42:11.835Z,100.00
2022-11-09T04:44:43.725Z,100.00
2022-11-09T04:47:15.232Z,100.00
2022-11-09T04:49:47.044Z,100.00
2022-11-09T04:52:18.566Z,100.00
2022-11-09T04:54:50.576Z,100.00
2022-11-09T04:57:22.066Z,100.00
2022-11-09T04:59:54.123Z,100.00
2022-11-09T05:02:25.631Z,100.00
2022-11-09T05:04:57.461Z,100.00
2022-11-09T05:07:28.951Z,100.00
2022-11-09T05:10:00.716Z,100.00
2022-11-09T05:12:32.211Z,100.00
2022-11-09T05:15:04.236Z,100.00
2022-11-09T05:17:36.100Z,100.00
2022-11-09T05:20:07.628Z,100.00
2022-11-09T05:22:58.169Z,100.00
2022-11-09T05:25:29.716Z,100.00
2022-11-09T05:28:01.560Z,100.00
2022-11-09T05:30:33.081Z,100.00
2022-11-09T05:33:05.103Z,100.00
2022-11-09T05:35:36.665Z,100.00
2022-11-09T05:38:08.494Z,100.00
2022-11-09T05:40:39.977Z,100.00
2022-11-09T05:43:11.842Z,100.00
2022-11-09T05:45:44.014Z,100.00
2022-11-09T05:48:16.143Z,100.00
2022-11-09T05:50:47.700Z,100.00
2022-11-09T05:53:19.924Z,100.00
2022-11-09T05:55:51.819Z,100.00
2022-11-09T05:58:23.421Z,100.00
2022-11-09T06:00:54.971Z,100.00
2022-11-09T06:03:26.862Z,100.00
2022-11-09T06:05:58.349Z,100.00
2022-11-09T06:08:30.158Z,100.00
2022-11-09T06:11:01.716Z,100.00
2022-11-09T06:13:33.388Z,100.00
2022-11-09T06:16:04.889Z,100.00
2022-11-09T06:18:36.851Z,100.00
2022-11-09T06:21:08.388Z,100.00
2022-11-09T06:23:40.006Z,100.00
2022-11-09T06:26:11.508Z,100.00
2022-11-09T06:28:43.541Z,100.00
2022-11-09T06:31:15.116Z,100.00
2022-11-09T06:33:46.934Z,100.00
2022-11-09T06:36:18.535Z,100.00
2022-11-09T06:38:50.813Z,100.00
2022-11-09T06:41:22.338Z,100.00
2022-11-09T06:43:54.197Z,100.00
2022-11-09T06:46:25.704Z,100.00
2022-11-09T06:48:57.237Z,100.00
2022-11-09T06:51:28.758Z,100.00
2022-11-09T06:54:00.702Z,100.00
2022-11-09T06:56:32.324Z,100.00
2022-11-09T06:59:04.411Z,100.00
2022-11-09T07:01:37.559Z,100.00
2022-11-09T07:04:09.155Z,100.00
2022-11-09T07:06:40.711Z,100.00
2022-11-09T07:09:12.597Z,100.00
2022-11-09T07:11:44.098Z,100.00
2022-11-09T07:14:15.986Z,100.00
2022-11-09T07:16:47.492Z,100.00
2022-11-09T07:19:19.282Z,100.00
2022-11-09T07:21:50.815Z,100.00
2022-11-09T07:24:22.651Z,100.00
2022-11-09T07:26:54.166Z,100.00
2022-11-09T07:29:26.057Z,100.00
2022-11-09T07:31:57.561Z,100.00
2022-11-09T07:34:29.454Z,100.00
2022-11-09T07:37:00.972Z,100.00
2022-11-09T07:39:32.912Z,100.00
2022-11-09T07:42:04.424Z,100.00
2022-11-09T07:44:36.325Z,100.00
2022-11-09T07:47:07.964Z,100.00
2022-11-09T07:49:39.792Z,100.00
2022-11-09T07:52:11.332Z,100.00
2022-11-09T07:54:45.168Z,100.00
2022-11-09T07:57:18.629Z,100.00
2022-11-09T07:59:51.830Z,100.00
2022-11-09T08:02:23.577Z,100.00
2022-11-09T08:04:55.167Z,100.00
2022-11-09T08:07:26.684Z,100.00
2022-11-09T08:09:58.511Z,100.00
2022-11-09T08:12:35.758Z,100.00
2022-11-09T08:15:08.852Z,100.00
2022-11-09T08:17:40.773Z,100.00
2022-11-09T08:20:12.338Z,100.00
2022-11-09T08:22:44.299Z,100.00
2022-11-09T08:25:15.854Z,100.00
2022-11-09T08:27:47.390Z,100.00
2022-11-09T08:30:19.002Z,100.00
2022-11-09T08:32:51.041Z,100.00
2022-11-09T08:35:22.573Z,100.00
2022-11-09T08:37:54.525Z,100.00
2022-11-09T08:40:26.040Z,100.00
2022-11-09T08:42:57.907Z,100.00
2022-11-09T08:45:29.407Z,100.00
2022-11-09T08:48:01.471Z,100.00
2022-11-09T08:50:33.031Z,100.00
2022-11-09T08:53:04.855Z,100.00
2022-11-09T08:55:36.371Z,100.00
2022-11-09T08:58:08.312Z,100.00
2022-11-09T09:00:39.946Z,100.00
2022-11-09T09:03:11.527Z,100.00
2022-11-09T09:05:43.021Z,100.00
2022-11-09T09:08:16.169Z,100.00
2022-11-09T09:10:47.684Z,100.00
2022-11-09T09:13:22.894Z,100.00
2022-11-09T09:15:54.442Z,100.00
2022-11-09T09:18:26.327Z,100.00
2022-11-09T09:20:57.977Z,100.00
2022-11-09T09:23:29.577Z,100.00
2022-11-09T09:26:01.088Z,100.00
2022-11-09T09:28:32.598Z,100.00
2022-11-09T09:31:04.896Z,100.00
2022-11-09T09:33:36.879Z,100.00
2022-11-09T09:36:08.370Z,100.00
2022-11-09T09:38:40.189Z,100.00
2022-11-09T09:41:11.707Z,100.00
2022-11-09T09:43:44.013Z,100.00
2022-11-09T09:46:15.596Z,100.00
2022-11-09T09:48:47.560Z,100.00
2022-11-09T09:51:19.060Z,100.00
2022-11-09T09:53:50.904Z,100.00
2022-11-09T09:56:22.456Z,100.00
2022-11-09T09:58:53.971Z,100.00
2022-11-09T10:01:25.526Z,100.00
2022-11-09T10:03:57.756Z,100.00
2022-11-09T10:06:29.261Z,100.00
2022-11-09T10:09:01.315Z,100.00
2022-11-09T10:11:32.803Z,100.00
2022-11-09T10:14:04.986Z,100.00
2022-11-09T10:16:36.579Z,100.00
2022-11-09T10:19:08.528Z,100.00
2022-11-09T10:21:40.055Z,100.00
2022-11-09T10:24:11.583Z,100.00
2022-11-09T10:26:43.111Z,100.00
2022-11-09T10:29:16.425Z,100.00
2022-11-09T10:31:48.479Z,100.00
2022-11-09T10:34:20.376Z,100.00
2022-11-09T10:36:51.876Z,100.00
2022-11-09T10:39:24.171Z,100.00
2022-11-09T10:41:55.704Z,100.00
2022-11-09T10:44:27.538Z,100.00
2022-11-09T10:46:59.035Z,100.00
2022-11-09T10:49:31.021Z,100.00
2022-11-09T10:52:02.622Z,100.00
2022-11-09T10:54:35.543Z,100.00
2022-11-09T10:57:07.249Z,100.00
2022-11-09T10:59:39.295Z,100.00
2022-11-09T11:02:11.001Z,100.00
2022-11-09T11:04:43.618Z,99.93
2022-11-09T11:07:20.570Z,100.00
2022-11-09T11:09:53.074Z,99.91
2022-11-09T11:12:24.587Z,99.23
2022-11-09T11:14:56.368Z,98.17
2022-11-09T11:17:27.862Z,98.76
2022-11-09T11:19:59.662Z,98.84
2022-11-09T11:22:31.171Z,97.78
2022-11-09T11:25:03.398Z,97.70
2022-11-09T11:27:34.903Z,96.31
2022-11-09T11:30:07.069Z,95.25
2022-11-09T11:32:38.597Z,94.88
2022-11-09T11:35:10.443Z,95.62
2022-11-09T11:37:41.939Z,95.39
2022-11-09T11:40:13.843Z,95.90
2022-11-09T11:42:45.350Z,97.19
2022-11-09T11:45:39.396Z,98.39
2022-11-09T11:48:09.060Z,98.73
2022-11-09T11:50:40.592Z,98.87
2022-11-09T11:53:12.549Z,98.25
2022-11-09T11:55:44.047Z,97.74
2022-11-09T11:58:15.892Z,96.35
2022-11-09T12:00:47.384Z,95.28
2022-11-09T12:03:19.196Z,95.39
2022-11-09T12:05:50.898Z,95.72
2022-11-09T12:08:22.912Z,94.96
2022-11-09T12:10:54.761Z,95.65
2022-11-09T12:13:26.569Z,97.12
2022-11-09T12:15:58.380Z,96.68
2022-11-09T12:18:30.371Z,97.81
2022-11-09T12:21:01.875Z,97.24
2022-11-09T12:23:33.869Z,96.95
2022-11-09T12:26:08.455Z,96.16
2022-11-09T12:28:42.524Z,94.97
2022-11-09T12:31:14.080Z,95.19
2022-11-09T12:33:45.939Z,94.53
2022-11-09T12:36:17.479Z,95.34
2022-11-09T12:38:49.352Z,95.88
2022-11-09T12:41:21.226Z,94.78
2022-11-09T12:43:53.114Z,94.92
2022-11-09T12:46:24.628Z,93.29
2022-11-09T12:48:56.149Z,94.53
2022-11-09T12:51:27.658Z,93.50
2022-11-09T12:53:59.503Z,91.94
2022-11-09T12:56:31.003Z,91.67
2022-11-09T12:59:02.534Z,91.62
2022-11-09T13:01:34.124Z,91.32
2022-11-09T13:04:06.021Z,91.36
2022-11-09T13:06:37.545Z,91.93
2022-11-09T13:09:09.406Z,91.50
2022-11-09T13:11:40.956Z,91.72
2022-11-09T13:14:12.811Z,91.42
2022-11-09T13:16:44.307Z,91.11
2022-11-09T13:19:15.838Z,90.79
2022-11-09T13:21:47.358Z,89.61
2022-11-09T13:24:24.248Z,90.55
2022-11-09T13:26:56.341Z,90.24
2022-11-09T13:29:28.284Z,90.10
2022-11-09T13:31:59.820Z,90.56
2022-11-09T13:34:31.629Z,90.37
2022-11-09T13:37:03.115Z,91.47
2022-11-09T13:39:34.705Z,92.29
2022-11-09T13:42:06.220Z,91.96
2022-11-09T13:44:39.431Z,91.76
2022-11-09T13:47:11.506Z,92.13
2022-11-09T13:49:43.051Z,93.19
2022-11-09T13:52:14.719Z,93.46
2022-11-09T13:54:46.606Z,93.56
2022-11-09T13:57:18.140Z,93.82
2022-11-09T13:59:50.091Z,93.62
2022-11-09T14:02:21.596Z,94.35
2022-11-09T14:04:55.215Z,95.71
2022-11-09T14:07:27.597Z,96.18
2022-11-09T14:10:01.325Z,96.85
2022-11-09T14:12:33.285Z,96.81
2022-11-09T14:15:04.998Z,97.19
2022-11-09T14:17:37.161Z,97.08
2022-11-09T14:20:11.918Z,97.79
2022-11-09T14:22:44.490Z,98.52
2022-11-09T14:25:16.015Z,99.45
2022-11-09T14:27:48.275Z,100.00
2022-11-09T14:30:19.820Z,100.00
2022-11-09T14:32:51.693Z,100.00
2022-11-09T14:35:23.237Z,100.00
2022-11-09T14:37:55.191Z,100.00
2022-11-09T14:40:26.761Z,100.00
2022-11-09T14:42:58.915Z,100.00
2022-11-09T14:45:30.416Z,100.00
2022-11-09T14:48:01.951Z,100.00
2022-11-09T14:50:33.497Z,100.00
2022-11-09T14:53:05.724Z,100.00
2022-11-09T14:55:37.213Z,100.00
2022-11-09T14:58:08.883Z,100.00
2022-11-09T15:00:45.657Z,100.00
2022-11-09T15:03:17.562Z,100.00
2022-11-09T15:05:49.063Z,100.00
2022-11-09T15:08:21.505Z,100.00
2022-11-09T15:10:53.354Z,100.00
2022-11-09T15:13:25.292Z,100.00
2022-11-09T15:15:56.804Z,100.00
2022-11-09T15:18:33.719Z,100.00
2022-11-09T15:21:05.824Z,100.00
2022-11-09T15:23:37.816Z,100.00
2022-11-09T15:26:09.318Z,100.00
2022-11-09T15:28:41.106Z,100.00
2022-11-09T15:31:13.401Z,100.00
2022-11-09T15:33:45.463Z,100.00
2022-11-09T15:36:16.941Z,100.00
2022-11-09T15:38:48.775Z,100.00
2022-11-09T15:41:20.297Z,100.00
2022-11-09T15:43:52.234Z,100.00
2022-11-09T15:46:23.851Z,100.00
2022-11-09T15:48:55.851Z,100.00
2022-11-09T15:51:27.334Z,100.00
2022-11-09T15:53:58.861Z,100.00
2022-11-09T15:56:30.370Z,100.00
2022-11-09T15:59:01.936Z,100.00
2022-11-09T16:01:33.898Z,100.00
2022-11-09T16:04:05.415Z,100.00
2022-11-09T16:06:37.284Z,100.00
2022-11-09T16:09:08.839Z,100.00
2022-11-09T16:11:40.788Z,100.00
2022-11-09T16:14:12.303Z,100.00
2022-11-09T16:16:44.196Z,100.00
2022-11-09T16:19:15.688Z,100.00
2022-11-09T16:21:47.507Z,100.00
2022-11-09T16:24:19.000Z,100.00
2022-11-09T16:26:50.859Z,100.00
2022-11-09T16:29:22.359Z,100.00
2022-11-09T16:31:54.316Z,100.00
2022-11-09T16:34:25.822Z,100.00
2022-11-09T16:36:57.699Z,100.00
2022-11-09T16:39:29.206Z,100.00
2022-11-09T16:42:01.923Z,100.00
2022-11-09T16:44:34.048Z,100.00
2022-11-09T16:47:05.881Z,100.00
2022-11-09T16:49:37.401Z,100.00
2022-11-09T16:52:09.775Z,100.00
2022-11-09T16:54:41.338Z,100.00
2022-11-09T16:57:13.296Z,100.00
2022-11-09T16:59:44.844Z,100.00
2022-11-09T17:02:16.750Z,100.00
2022-11-09T17:04:48.268Z,100.00
2022-11-09T17:07:20.325Z,100.00
2022-11-09T17:09:51.834Z,100.00
2022-11-09T17:12:23.866Z,100.00
2022-11-09T17:14:55.359Z,100.00
2022-11-09T17:17:27.352Z,100.00
2022-11-09T17:19:59.660Z,100.00
2022-11-09T17:22:31.516Z,100.00
2022-11-09T17:25:03.147Z,100.00
2022-11-09T17:27:35.151Z,100.00
2022-11-09T17:30:06.701Z,100.00
2022-11-09T17:32:38.714Z,100.00
2022-11-09T17:35:10.220Z,100.00
2022-11-09T17:37:42.676Z,100.00
2022-11-09T17:40:14.161Z,100.00
2022-11-09T17:42:45.668Z,100.00
2022-11-09T17:45:17.209Z,100.00
2022-11-09T17:47:49.208Z,100.00
2022-11-09T17:50:21.342Z,100.00
2022-11-09T17:52:53.439Z,100.00
2022-11-09T17:55:24.951Z,100.00
2022-11-09T17:57:56.860Z,100.00
2022-11-09T18:00:28.440Z,100.00
2022-11-09T18:03:00.342Z,100.00
2022-11-09T18:05:31.933Z,100.00
2022-11-09T18:08:03.803Z,100.00
2022-11-09T18:10:35.304Z,100.00
2022-11-09T18:13:07.198Z,100.00
2022-11-09T18:15:38.693Z,100.00
2022-11-09T18:18:10.539Z,100.00
2022-11-09T18:20:42.067Z,100.00
2022-11-09T18:23:14.260Z,100.00
2022-11-09T18:25:45.823Z,100.00
2022-11-09T18:28:17.790Z,100.00
2022-11-09T18:30:49.548Z,100.00
2022-11-09T18:33:21.092Z,100.00
2022-11-09T18:35:52.600Z,100.00
2022-11-09T18:38:29.120Z,100.00
2022-11-09T18:41:01.225Z,100.00
2022-11-09T18:43:32.922Z,100.00
2022-11-09T18:46:04.446Z,100.00
2022-11-09T18:48:37.752Z,100.00
2022-11-09T18:51:09.327Z,100.00
2022-11-09T18:53:41.229Z,100.00
2022-11-09T18:56:18.197Z,100.00
2022-11-09T18:58:50.123Z,100.00
2022-11-09T19:01:28.590Z,100.00
2022-11-09T19:04:01.829Z,100.00
2022-11-09T19:06:33.724Z,100.00
2022-11-09T19:09:23.914Z,100.00
2022-11-09T19:11:55.923Z,100.00
2022-11-09T19:14:27.406Z,100.00
2022-11-09T19:16:59.171Z,100.00
2022-11-09T19:19:30.682Z,100.00
2022-11-09T19:22:02.502Z,100.00
2022-11-09T19:24:34.108Z,100.00
2022-11-09T19:27:06.067Z,100.00
2022-11-09T19:29:37.595Z,100.00
2022-11-09T19:32:09.496Z,100.00
2022-11-09T19:34:42.699Z,100.00
2022-11-09T19:37:14.701Z,100.00
2022-11-09T19:39:47.628Z,100.00
2022-11-09T19:42:19.548Z,100.00
2022-11-09T19:44:56.177Z,100.00
2022-11-09T19:47:28.363Z,100.00
2022-11-09T19:49:59.907Z,100.00
2022-11-09T19:52:31.823Z,100.00
2022-11-09T19:55:03.390Z,100.00
2022-11-09T19:57:35.297Z,100.00
2022-11-09T20:00:07.385Z,100.00
2022-11-09T20:02:39.219Z,100.00
2022-11-09T20:05:10.728Z,100.00
2022-11-09T20:07:43.787Z,100.00
2022-11-09T20:10:16.210Z,100.00
2022-11-09T20:12:51.232Z,100.00
2022-11-09T20:15:22.792Z,100.00
2022-11-09T20:17:54.620Z,100.00
2022-11-09T20:20:26.136Z,100.00
2022-11-09T20:22:57.978Z,100.00
2022-11-09T20:25:29.498Z,100.00
2022-11-09T20:28:01.345Z,100.00
2022-11-09T20:30:33.088Z,100.00
2022-11-09T20:33:04.657Z,100.00
2022-11-09T20:35:36.161Z,100.00
2022-11-09T20:38:07.692Z,100.00
2022-11-09T20:40:39.213Z,100.00
2022-11-09T20:43:11.106Z,100.00
2022-11-09T20:45:42.583Z,100.00
2022-11-09T20:48:31.416Z,100.00
2022-11-09T20:51:06.496Z,100.00
2022-11-09T20:53:38.082Z,100.00
2022-11-09T20:56:09.931Z,100.00
2022-11-09T20:58:41.506Z,100.00
2022-11-09T21:01:13.525Z,100.00
2022-11-09T21:03:45.100Z,100.00
2022-11-09T21:06:16.610Z,100.00
2022-11-09T21:08:49.853Z,100.00
2022-11-09T21:11:23.986Z,100.00
2022-11-09T21:13:55.489Z,100.00
2022-11-09T21:16:27.399Z,100.00
2022-11-09T21:18:58.903Z,100.00
2022-11-09T21:21:36.075Z,100.00
2022-11-09T21:24:26.890Z,100.00
2022-11-09T21:27:17.402Z,100.00
2022-11-09T21:29:51.744Z,100.00
2022-11-09T21:32:23.615Z,100.00
2022-11-09T21:34:55.210Z,100.00
2022-11-09T21:37:27.030Z,100.00
2022-11-09T21:39:58.556Z,100.00
2022-11-09T21:42:30.506Z,100.00
2022-11-09T21:45:02.040Z,100.00
2022-11-09T21:47:33.857Z,100.00
2022-11-09T21:50:11.144Z,100.00
2022-11-09T21:52:44.362Z,100.00
2022-11-09T21:55:16.266Z,100.00
2022-11-09T21:57:47.757Z,100.00
2022-11-09T22:00:19.643Z,100.00
2022-11-09T22:02:51.147Z,100.00
2022-11-09T22:05:23.357Z,100.00
2022-11-09T22:07:54.921Z,100.00
2022-11-09T22:10:26.804Z,100.00
2022-11-09T22:13:16.964Z,100.00
2022-11-09T22:16:06.898Z,100.00
2022-11-09T22:18:57.387Z,100.00
2022-11-09T22:21:29.270Z,100.00
2022-11-09T22:24:00.772Z,100.00
2022-11-09T22:26:32.298Z,100.00
2022-11-09T22:29:03.829Z,100.00
2022-11-09T22:31:35.669Z,100.00
2022-11-09T22:34:07.168Z,100.00
2022-11-09T22:36:38.930Z,100.00
2022-11-09T22:39:10.454Z,100.00
2022-11-09T22:41:42.267Z,100.00
2022-11-09T22:44:13.813Z,100.00
2022-11-09T22:46:45.645Z,100.00
2022-11-09T22:49:19.071Z,100.00
2022-11-09T22:51:52.345Z,100.00
2022-11-09T22:54:23.869Z,100.00
2022-11-09T22:56:55.714Z,100.00
2022-11-09T22:59:27.210Z,100.00
2022-11-09T23:01:59.086Z,100.00
2022-11-09T23:04:30.630Z,100.00
2022-11-09T23:07:02.263Z,100.00
2022-11-09T23:09:33.791Z,100.00
2022-11-09T23:12:05.629Z,100.00
2022-11-09T23:14:56.212Z,100.00
2022-11-09T23:17:46.849Z,100.00
2022-11-09T23:20:18.367Z,100.00
2022-11-09T23:22:49.985Z,100.00
2022-11-09T23:25:40.108Z,100.00
2022-11-09T23:28:11.627Z,100.00
2022-11-09T23:30:43.146Z,100.00
2022-11-09T23:33:15.027Z,100.00
2022-11-09T23:35:46.528Z,100.00
2022-11-09T23:38:18.039Z,100.00
2022-11-09T23:40:49.569Z,100.00
2022-11-09T23:43:21.921Z,100.00
2022-11-09T23:45:53.757Z,100.00
2022-11-09T23:48:25.655Z,100.00
2022-11-09T23:50:57.592Z,100.00
2022-11-09T23:53:29.117Z,100.00
2022-11-09T23:56:01.134Z,100.00
2022-11-09T23:58:32.694Z,100.00
